Time;durP1;ratioP1;P1;durP2;ratioP2;P2;SDS_P1;SDS_P2;PMS_P1;PMS_P2;Temp;Humidity;BMP_temperature;BMP_pressure;BME280_temperature;BME280_humidity;BME280_pressure;Samples;Min_cycle;Max_cycle;Signal;HPM_P1;HPM_P2
2020/12/25 00:00:43;;;;;;;29.58;17.75;;;;;;;;;;5099340;28;20061;-79
2020/12/25 00:03:14;;;;;;;26.75;17.20;;;;;;;;;;5099516;28;20275;-79
2020/12/25 00:05:40;;;;;;;28.60;17.87;;;;;;;;;;5098962;28;20471;-78
2020/12/25 00:08:07;;;;;;;78.18;37.20;;;;;;;;;;5098815;28;20276;-78
2020/12/25 00:10:33;;;;;;;61.58;29.70;;;;;;;;;;5098907;28;20112;-78
2020/12/25 00:12:59;;;;;;;37.60;21.00;;;;;;;;;;5098939;28;20024;-78
2020/12/25 00:15:25;;;;;;;16.42;11.20;;;;;;;;;;5098782;28;20024;-78
2020/12/25 00:17:51;;;;;;;14.00;10.32;;;;;;;;;;5098805;28;20474;-78
2020/12/25 00:20:17;;;;;;;13.77;9.50;;;;;;;;;;5080953;28;20020;-78
2020/12/25 00:22:43;;;;;;;16.27;10.73;;;;;;;;;;5098243;28;20020;-78
2020/12/25 00:25:09;;;;;;;13.82;9.10;;;;;;;;;;5072091;28;20425;-78
2020/12/25 00:27:36;;;;;;;18.70;10.85;;;;;;;;;;5079569;28;20028;-79
2020/12/25 00:30:02;;;;;;;18.33;12.38;;;;;;;;;;5098689;28;20111;-79
2020/12/25 00:32:28;;;;;;;14.77;9.90;;;;;;;;;;5098682;28;20020;-78
2020/12/25 00:34:54;;;;;;;12.85;8.32;;;;;;;;;;5098456;28;20020;-78
2020/12/25 00:37:22;;;;;;;16.77;9.77;;;;;;;;;;5098471;28;20020;-78
2020/12/25 00:39:48;;;;;;;15.35;10.07;;;;;;;;;;5098454;28;20455;-78
2020/12/25 00:42:33;;;;;;;15.60;9.95;;;;;;;;;;5098575;28;20024;-79
2020/12/25 00:44:59;;;;;;;21.35;12.52;;;;;;;;;;5098616;28;20031;-79
2020/12/25 00:47:25;;;;;;;31.10;15.32;;;;;;;;;;5098426;28;20335;-79
2020/12/25 00:49:51;;;;;;;20.20;12.27;;;;;;;;;;5098293;28;20360;-78
2020/12/25 00:52:17;;;;;;;20.27;12.40;;;;;;;;;;5098300;28;20475;-78
2020/12/25 00:54:43;;;;;;;21.80;14.65;;;;;;;;;;5098240;28;20031;-79
2020/12/25 00:57:10;;;;;;;20.65;13.63;;;;;;;;;;5098489;28;20330;-79
2020/12/25 00:59:38;;;;;;;17.80;11.60;;;;;;;;;;5098022;28;20017;-79
2020/12/25 01:02:04;;;;;;;19.48;11.30;;;;;;;;;;5098251;28;20020;-78
2020/12/25 01:04:30;;;;;;;21.13;11.90;;;;;;;;;;5079851;28;20118;-78
2020/12/25 01:06:56;;;;;;;12.98;9.50;;;;;;;;;;5098343;28;20024;-78
2020/12/25 01:09:24;;;;;;;18.45;10.02;;;;;;;;;;5097882;28;20032;-78
2020/12/25 01:11:50;;;;;;;13.43;8.32;;;;;;;;;;5098027;28;20024;-79
2020/12/25 01:14:16;;;;;;;14.25;6.75;;;;;;;;;;5097855;28;20829;-80
2020/12/25 01:16:42;;;;;;;8.30;5.85;;;;;;;;;;5097791;28;20076;-80
2020/12/25 01:19:08;;;;;;;7.72;6.13;;;;;;;;;;5098158;28;20100;-80
2020/12/25 01:21:34;;;;;;;7.53;5.60;;;;;;;;;;5097606;28;20020;-80
2020/12/25 01:24:00;;;;;;;6.00;3.25;;;;;;;;;;5079828;28;20020;-79
2020/12/25 01:26:26;;;;;;;4.03;2.85;;;;;;;;;;5097412;28;20024;-79
2020/12/25 01:28:54;;;;;;;5.38;2.97;;;;;;;;;;5097559;28;20025;-79
2020/12/25 01:31:21;;;;;;;5.80;3.92;;;;;;;;;;5097576;28;20410;-79
2020/12/25 01:33:47;;;;;;;5.28;3.20;;;;;;;;;;5097485;28;20035;-79
2020/12/25 01:36:13;;;;;;;6.00;3.33;;;;;;;;;;5097160;28;20432;-80
2020/12/25 01:38:39;;;;;;;3.97;2.88;;;;;;;;;;5097348;28;20479;-79
2020/12/25 01:41:05;;;;;;;3.00;2.45;;;;;;;;;;5097489;28;20413;-79
2020/12/25 01:43:31;;;;;;;5.22;2.70;;;;;;;;;;5079076;28;20036;-79
2020/12/25 01:45:57;;;;;;;5.78;2.95;;;;;;;;;;5097766;28;20027;-79
2020/12/25 01:48:23;;;;;;;5.32;3.00;;;;;;;;;;5097515;28;20048;-79
2020/12/25 01:50:51;;;;;;;4.75;3.25;;;;;;;;;;5097550;28;20028;-79
2020/12/25 01:53:19;;;;;;;5.40;3.67;;;;;;;;;;5079268;28;20443;-79
2020/12/25 01:55:45;;;;;;;5.25;2.97;;;;;;;;;;5079579;28;20410;-79
2020/12/25 01:58:12;;;;;;;5.22;3.40;;;;;;;;;;5097212;28;20456;-79
2020/12/25 02:00:38;;;;;;;6.68;4.07;;;;;;;;;;5079465;28;20024;-79
2020/12/25 02:03:04;;;;;;;8.75;4.70;;;;;;;;;;5097359;28;20020;-79
2020/12/25 02:05:31;;;;;;;8.18;4.82;;;;;;;;;;5097012;28;20028;-79
2020/12/25 02:07:57;;;;;;;8.23;5.32;;;;;;;;;;5097052;28;20020;-79
2020/12/25 02:10:23;;;;;;;10.27;6.28;;;;;;;;;;5096988;28;20043;-79
2020/12/25 02:12:50;;;;;;;14.68;9.60;;;;;;;;;;5097125;28;20039;-79
2020/12/25 02:15:16;;;;;;;14.90;9.57;;;;;;;;;;5078744;28;20032;-79
2020/12/25 02:17:43;;;;;;;17.75;13.63;;;;;;;;;;5097054;28;20080;-79
2020/12/25 02:20:09;;;;;;;13.40;8.90;;;;;;;;;;5097108;28;20406;-79
2020/12/25 02:22:35;;;;;;;15.23;10.18;;;;;;;;;;5096944;28;20394;-78
2020/12/25 02:25:01;;;;;;;13.00;7.78;;;;;;;;;;5097211;28;20360;-79
2020/12/25 02:27:27;;;;;;;10.35;5.40;;;;;;;;;;5096900;28;20423;-78
2020/12/25 02:29:53;;;;;;;8.48;4.30;;;;;;;;;;5097105;28;20113;-79
2020/12/25 02:32:19;;;;;;;4.90;3.55;;;;;;;;;;5097140;28;20321;-79
2020/12/25 02:34:45;;;;;;;5.05;3.47;;;;;;;;;;5096923;28;20325;-79
2020/12/25 02:37:11;;;;;;;5.93;3.40;;;;;;;;;;5078574;28;20028;-80
2020/12/25 02:39:37;;;;;;;9.57;6.72;;;;;;;;;;5096759;28;20414;-79
2020/12/25 02:42:03;;;;;;;7.35;5.22;;;;;;;;;;5096871;28;20020;-79
2020/12/25 02:44:29;;;;;;;6.30;3.88;;;;;;;;;;5096704;28;20424;-79
2020/12/25 02:46:55;;;;;;;4.63;3.50;;;;;;;;;;5097859;28;20039;-79
2020/12/25 02:49:21;;;;;;;5.80;4.00;;;;;;;;;;5082803;28;20035;-79
2020/12/25 02:51:48;;;;;;;6.32;3.88;;;;;;;;;;5100622;28;20028;-79
2020/12/25 02:54:14;;;;;;;6.90;4.68;;;;;;;;;;5100748;28;20028;-79
2020/12/25 02:56:40;;;;;;;6.63;4.75;;;;;;;;;;5100507;28;20031;-78
2020/12/25 02:59:06;;;;;;;8.18;4.78;;;;;;;;;;5100380;28;20024;-78
2020/12/25 03:01:32;;;;;;;6.38;4.57;;;;;;;;;;5100469;28;20024;-79
2020/12/25 03:03:58;;;;;;;7.40;4.60;;;;;;;;;;5100709;28;20326;-79
2020/12/25 03:06:24;;;;;;;10.32;5.28;;;;;;;;;;5100409;28;20313;-80
2020/12/25 03:08:50;;;;;;;7.65;4.18;;;;;;;;;;5100350;28;20857;-80
2020/12/25 03:11:16;;;;;;;7.30;4.25;;;;;;;;;;5100224;28;20364;-79
2020/12/25 03:13:42;;;;;;;11.23;5.70;;;;;;;;;;5100099;28;20429;-79
2020/12/25 03:16:08;;;;;;;12.90;5.90;;;;;;;;;;5100094;28;20075;-78
2020/12/25 03:18:34;;;;;;;8.88;5.20;;;;;;;;;;5100158;28;20066;-79
2020/12/25 03:21:00;;;;;;;10.13;5.38;;;;;;;;;;5100127;28;20020;-79
2020/12/25 03:23:27;;;;;;;8.32;5.13;;;;;;;;;;5082075;28;20323;-78
2020/12/25 03:25:53;;;;;;;8.30;4.07;;;;;;;;;;5099995;28;20036;-79
2020/12/25 03:28:19;;;;;;;8.60;4.97;;;;;;;;;;5099271;28;20434;-79
2020/12/25 03:30:45;;;;;;;12.23;6.13;;;;;;;;;;5100193;28;20081;-79
2020/12/25 03:33:11;;;;;;;21.73;12.10;;;;;;;;;;5099891;28;20035;-79
2020/12/25 03:35:37;;;;;;;16.60;8.30;;;;;;;;;;5099800;28;20119;-79
2020/12/25 03:38:03;;;;;;;12.05;6.95;;;;;;;;;;5081789;28;20322;-79
2020/12/25 03:40:29;;;;;;;20.98;13.27;;;;;;;;;;5099624;28;20097;-78
2020/12/25 03:42:55;;;;;;;38.53;19.40;;;;;;;;;;5099769;28;20054;-79
2020/12/25 03:45:21;;;;;;;21.17;12.63;;;;;;;;;;5099712;28;20329;-78
2020/12/25 03:47:47;;;;;;;10.98;5.93;;;;;;;;;;5081774;28;20402;-79
2020/12/25 03:50:13;;;;;;;10.82;6.18;;;;;;;;;;5099520;28;20398;-79
2020/12/25 03:52:39;;;;;;;10.18;4.90;;;;;;;;;;5081617;28;20492;-79
2020/12/25 03:55:05;;;;;;;12.32;6.50;;;;;;;;;;5099073;28;20394;-79
2020/12/25 03:57:31;;;;;;;10.75;6.05;;;;;;;;;;5099297;28;20031;-78
2020/12/25 03:59:57;;;;;;;15.50;6.00;;;;;;;;;;5099438;28;20020;-79
2020/12/25 04:02:23;;;;;;;9.85;5.60;;;;;;;;;;5099326;28;20026;-79
2020/12/25 04:04:49;;;;;;;21.63;11.85;;;;;;;;;;5081423;28;20027;-79
2020/12/25 04:07:15;;;;;;;20.23;11.13;;;;;;;;;;5099361;28;20028;-78
2020/12/25 04:09:42;;;;;;;15.27;7.97;;;;;;;;;;5098937;28;20032;-79
2020/12/25 04:12:08;;;;;;;17.15;8.25;;;;;;;;;;5099148;28;20031;-78
2020/12/25 04:14:34;;;;;;;34.30;15.68;;;;;;;;;;5080604;28;20337;-78
2020/12/25 04:17:00;;;;;;;23.58;12.85;;;;;;;;;;5098934;28;20044;-78
2020/12/25 04:19:26;;;;;;;15.25;7.72;;;;;;;;;;5098985;28;20153;-78
2020/12/25 04:21:52;;;;;;;12.77;6.43;;;;;;;;;;5099229;28;20024;-78
2020/12/25 04:24:18;;;;;;;10.68;5.78;;;;;;;;;;5098863;28;20031;-78
2020/12/25 04:26:48;;;;;;;10.43;5.07;;;;;;;;;;5098809;28;20030;-78
2020/12/25 04:29:14;;;;;;;9.60;4.95;;;;;;;;;;5098615;28;20024;-79
2020/12/25 04:31:40;;;;;;;15.07;6.93;;;;;;;;;;5098870;28;20028;-78
2020/12/25 04:34:07;;;;;;;10.85;6.30;;;;;;;;;;5098715;28;20020;-79
2020/12/25 04:36:33;;;;;;;15.07;7.25;;;;;;;;;;5098546;28;20020;-78
2020/12/25 04:38:59;;;;;;;14.07;7.43;;;;;;;;;;5098489;28;20036;-78
2020/12/25 04:41:25;;;;;;;13.40;7.50;;;;;;;;;;5098852;28;20024;-79
2020/12/25 04:43:52;;;;;;;11.82;6.68;;;;;;;;;;5098287;28;20032;-78
2020/12/25 04:46:18;;;;;;;12.40;6.82;;;;;;;;;;5080122;28;20054;-78
2020/12/25 04:48:45;;;;;;;17.50;8.85;;;;;;;;;;5080224;28;20134;-79
2020/12/25 04:51:11;;;;;;;21.20;10.70;;;;;;;;;;5080407;28;20035;-78
2020/12/25 04:53:38;;;;;;;8.20;4.65;;;;;;;;;;5098285;28;20407;-78
2020/12/25 04:56:04;;;;;;;11.43;5.50;;;;;;;;;;5098457;28;20017;-78
2020/12/25 04:58:30;;;;;;;8.52;4.57;;;;;;;;;;5098149;28;20020;-78
2020/12/25 05:01:03;;;;;;;10.15;5.85;;;;;;;;;;5098270;28;20020;-78
2020/12/25 05:03:33;;;;;;;8.88;5.07;;;;;;;;;;5098100;28;20102;-78
2020/12/25 05:06:02;;;;;;;8.25;5.00;;;;;;;;;;5097921;28;20035;-78
2020/12/25 05:08:28;;;;;;;9.30;5.22;;;;;;;;;;5097863;28;20370;-78
2020/12/25 05:10:55;;;;;;;14.38;8.82;;;;;;;;;;5097388;28;20028;-77
2020/12/25 05:13:21;;;;;;;22.92;14.82;;;;;;;;;;5097774;28;20024;-78
2020/12/25 05:15:50;;;;;;;19.50;13.18;;;;;;;;;;5097847;28;20024;-77
2020/12/25 05:18:17;;;;;;;17.25;10.25;;;;;;;;;;5098006;28;20035;-78
2020/12/25 05:20:43;;;;;;;14.50;8.63;;;;;;;;;;5097869;28;20060;-78
2020/12/25 05:23:09;;;;;;;12.10;7.80;;;;;;;;;;5097761;28;20083;-78
2020/12/25 05:25:35;;;;;;;8.65;6.28;;;;;;;;;;5097905;28;20032;-78
2020/12/25 05:28:11;;;;;;;15.93;9.02;;;;;;;;;;5097806;28;20051;-78
2020/12/25 05:30:37;;;;;;;18.20;11.90;;;;;;;;;;5097553;28;20353;-78
2020/12/25 05:33:03;;;;;;;23.05;15.43;;;;;;;;;;5097995;28;20328;-78
2020/12/25 05:35:30;;;;;;;22.75;14.30;;;;;;;;;;5097455;28;20028;-78
2020/12/25 05:37:56;;;;;;;15.93;11.48;;;;;;;;;;5097615;28;20024;-78
2020/12/25 05:40:22;;;;;;;22.98;14.43;;;;;;;;;;5097342;28;20119;-78
2020/12/25 05:42:49;;;;;;;37.53;23.15;;;;;;;;;;5097640;28;20046;-78
2020/12/25 05:45:18;;;;;;;27.85;17.63;;;;;;;;;;5097256;28;20031;-78
2020/12/25 05:47:45;;;;;;;16.80;12.05;;;;;;;;;;5097733;28;20066;-78
2020/12/25 05:50:11;;;;;;;15.32;11.05;;;;;;;;;;5097511;28;20074;-78
2020/12/25 05:52:39;;;;;;;13.55;9.23;;;;;;;;;;5097324;28;20109;-79
2020/12/25 05:55:05;;;;;;;11.85;9.18;;;;;;;;;;5097391;28;20332;-79
2020/12/25 05:57:34;;;;;;;13.82;8.40;;;;;;;;;;5079173;28;20028;-79
2020/12/25 06:00:04;;;;;;;10.02;6.43;;;;;;;;;;5079256;28;20024;-79
2020/12/25 06:02:32;;;;;;;11.60;7.32;;;;;;;;;;5097169;28;20020;-79
2020/12/25 06:04:58;;;;;;;13.98;7.75;;;;;;;;;;5097535;28;20039;-79
2020/12/25 06:07:29;;;;;;;13.95;8.25;;;;;;;;;;5097126;28;20111;-78
2020/12/25 06:09:58;;;;;;;20.42;10.68;;;;;;;;;;5097130;28;20038;-78
2020/12/25 06:12:30;;;;;;;15.02;8.85;;;;;;;;;;5097120;28;20078;-78
2020/12/25 06:14:57;;;;;;;21.98;11.55;;;;;;;;;;5097266;28;20028;-78
2020/12/25 06:17:24;;;;;;;31.10;15.82;;;;;;;;;;5096927;28;20143;-78
2020/12/25 06:19:50;;;;;;;24.63;15.63;;;;;;;;;;5097090;28;20027;-79
2020/12/25 06:22:22;;;;;;;20.23;12.77;;;;;;;;;;5099013;28;20099;-78
2020/12/25 06:24:48;;;;;;;18.63;12.38;;;;;;;;;;5101259;28;20410;-78
2020/12/25 06:27:15;;;;;;;16.75;9.82;;;;;;;;;;5101168;28;20059;-78
2020/12/25 06:29:44;;;;;;;12.73;9.07;;;;;;;;;;5101171;28;20028;-78
2020/12/25 06:32:10;;;;;;;10.60;7.45;;;;;;;;;;5101140;28;20047;-78
2020/12/25 06:34:46;;;;;;;9.05;5.63;;;;;;;;;;5100740;28;20028;-78
2020/12/25 06:37:16;;;;;;;7.63;4.75;;;;;;;;;;5100930;28;20016;-78
2020/12/25 06:39:48;;;;;;;9.40;5.50;;;;;;;;;;5100770;28;20024;-78
2020/12/25 06:42:14;;;;;;;9.13;5.30;;;;;;;;;;5100919;28;20024;-79
2020/12/25 06:44:48;;;;;;;8.57;5.22;;;;;;;;;;5082414;28;20062;-79
2020/12/25 06:47:26;;;;;;;11.43;5.85;;;;;;;;;;5100878;28;20028;-79
2020/12/25 06:49:52;;;;;;;12.85;5.80;;;;;;;;;;5100743;28;20048;-78
2020/12/25 06:52:25;;;;;;;10.25;5.00;;;;;;;;;;5100862;28;20031;-78
2020/12/25 06:54:51;;;;;;;6.82;4.63;;;;;;;;;;5100570;28;20031;-79
2020/12/25 06:57:17;;;;;;;11.80;5.70;;;;;;;;;;5100564;28;20053;-78
2020/12/25 07:00:20;;;;;;;8.80;5.93;;;;;;;;;;5100547;28;20406;-79
2020/12/25 07:02:47;;;;;;;9.60;6.25;;;;;;;;;;5100470;28;20028;-79
2020/12/25 07:05:13;;;;;;;12.27;7.95;;;;;;;;;;5082280;28;20295;-78
2020/12/25 07:07:39;;;;;;;9.23;6.35;;;;;;;;;;5100563;28;20111;-79
2020/12/25 07:10:10;;;;;;;11.45;6.55;;;;;;;;;;5100278;28;20040;-79
2020/12/25 07:12:36;;;;;;;6.78;4.70;;;;;;;;;;5100541;28;20024;-79
2020/12/25 07:15:03;;;;;;;10.40;5.65;;;;;;;;;;5081806;28;20040;-79
2020/12/25 07:17:29;;;;;;;9.50;5.78;;;;;;;;;;5099992;28;20052;-79
2020/12/25 07:19:55;;;;;;;9.18;5.88;;;;;;;;;;5100424;28;20024;-79
2020/12/25 07:22:22;;;;;;;14.77;8.15;;;;;;;;;;5100453;28;20032;-79
2020/12/25 07:24:48;;;;;;;8.57;5.30;;;;;;;;;;5100112;28;20058;-79
2020/12/25 07:27:14;;;;;;;6.97;5.13;;;;;;;;;;5099880;28;20031;-79
2020/12/25 07:30:17;;;;;;;6.32;3.92;;;;;;;;;;5081666;28;20032;-79
2020/12/25 07:32:43;;;;;;;11.57;7.53;;;;;;;;;;5099225;28;20024;-79
2020/12/25 07:35:10;;;;;;;10.55;8.27;;;;;;;;;;5099803;28;20107;-79
2020/12/25 07:37:36;;;;;;;9.82;7.60;;;;;;;;;;5081611;28;20024;-79
2020/12/25 07:40:06;;;;;;;12.15;9.52;;;;;;;;;;5099637;28;20024;-79
2020/12/25 07:42:32;;;;;;;14.20;8.27;;;;;;;;;;5081767;28;20051;-79
2020/12/25 07:44:59;;;;;;;60.67;19.17;;;;;;;;;;5099608;28;20048;-79
2020/12/25 07:47:25;;;;;;;31.67;12.18;;;;;;;;;;5081913;28;20043;-78
2020/12/25 07:49:53;;;;;;;22.70;10.32;;;;;;;;;;5099582;28;20020;-79
2020/12/25 07:52:20;;;;;;;18.25;9.40;;;;;;;;;;5099687;28;20024;-78
2020/12/25 07:54:46;;;;;;;14.88;9.20;;;;;;;;;;5099335;28;20024;-78
2020/12/25 07:57:12;;;;;;;16.48;10.43;;;;;;;;;;5095526;28;20032;-79
2020/12/25 07:59:38;;;;;;;29.52;15.20;;;;;;;;;;5094050;28;20020;-79
2020/12/25 08:02:04;;;;;;;29.40;14.38;;;;;;;;;;5099447;28;20028;-78
2020/12/25 08:04:30;;;;;;;24.30;13.63;;;;;;;;;;5099249;28;20027;-79
2020/12/25 08:06:57;;;;;;;40.53;19.38;;;;;;;;;;5099272;28;20078;-78
2020/12/25 08:09:24;;;;;;;40.05;22.30;;;;;;;;;;5099178;28;20471;-79
2020/12/25 08:11:51;;;;;;;37.53;18.58;;;;;;;;;;5099365;28;20024;-79
2020/12/25 08:14:18;;;;;;;19.88;12.80;;;;;;;;;;5099292;28;20024;-79
2020/12/25 08:16:44;;;;;;;19.23;11.65;;;;;;;;;;5098880;28;20109;-80
2020/12/25 08:19:11;;;;;;;19.05;10.93;;;;;;;;;;5099028;28;20142;-78
2020/12/25 08:21:38;;;;;;;16.60;9.32;;;;;;;;;;5099207;28;20020;-79
2020/12/25 08:24:05;;;;;;;22.85;11.63;;;;;;;;;;5098850;28;20305;-79
2020/12/25 08:26:36;;;;;;;31.83;18.73;;;;;;;;;;5080601;28;20032;-79
2020/12/25 08:29:02;;;;;;;34.00;20.17;;;;;;;;;;5081104;28;20402;-78
2020/12/25 08:31:36;;;;;;;28.92;16.23;;;;;;;;;;5098801;28;20432;-79
2020/12/25 08:34:02;;;;;;;31.50;18.48;;;;;;;;;;5098591;28;20028;-78
2020/12/25 08:36:28;;;;;;;30.33;17.33;;;;;;;;;;5099296;28;20020;-78
2020/12/25 08:38:54;;;;;;;56.42;25.50;;;;;;;;;;5080357;28;20039;-78
2020/12/25 08:41:25;;;;;;;142.30;48.45;;;;;;;;;;5098538;28;20026;-79
2020/12/25 08:43:51;;;;;;;220.00;68.07;;;;;;;;;;5080102;28;20341;-79
2020/12/25 08:46:21;;;;;;;190.10;58.13;;;;;;;;;;5098068;28;20078;-79
2020/12/25 08:48:48;;;;;;;115.75;33.53;;;;;;;;;;5098424;28;20016;-78
2020/12/25 08:51:15;;;;;;;228.98;63.78;;;;;;;;;;5095132;28;20141;-78
2020/12/25 08:53:54;;;;;;;166.15;51.20;;;;;;;;;;5076763;28;20414;-78
2020/12/25 08:56:20;;;;;;;88.43;32.22;;;;;;;;;;5086411;28;20021;-78
2020/12/25 08:58:58;;;;;;;69.70;29.48;;;;;;;;;;5087125;28;20143;-79
2020/12/25 09:01:24;;;;;;;64.53;27.02;;;;;;;;;;5080197;28;20016;-79
2020/12/25 09:03:51;;;;;;;39.67;21.83;;;;;;;;;;5080320;28;20141;-79
2020/12/25 09:06:18;;;;;;;40.20;22.63;;;;;;;;;;5098479;28;20020;-79
2020/12/25 09:08:44;;;;;;;43.33;32.60;;;;;;;;;;5098049;28;20028;-78
2020/12/25 09:11:10;;;;;;;46.47;30.13;;;;;;;;;;5098178;28;20032;-79
2020/12/25 09:13:37;;;;;;;66.68;39.75;;;;;;;;;;5098188;28;20020;-79
2020/12/25 09:16:04;;;;;;;98.22;57.35;;;;;;;;;;5079376;28;20036;-80
2020/12/25 09:18:30;;;;;;;101.68;60.70;;;;;;;;;;5079972;28;20028;-79
2020/12/25 09:20:56;;;;;;;135.43;64.93;;;;;;;;;;5097847;28;20112;-79
2020/12/25 09:23:22;;;;;;;115.00;62.40;;;;;;;;;;5097843;28;20020;-80
2020/12/25 09:25:48;;;;;;;112.25;58.92;;;;;;;;;;5079680;28;20054;-79
2020/12/25 09:28:14;;;;;;;122.50;65.75;;;;;;;;;;5097797;28;20028;-79
2020/12/25 09:30:41;;;;;;;145.48;81.53;;;;;;;;;;5097657;28;20432;-78
2020/12/25 09:33:07;;;;;;;156.77;86.72;;;;;;;;;;5079362;28;20036;-79
2020/12/25 09:35:33;;;;;;;122.90;71.28;;;;;;;;;;5097521;28;20032;-79
2020/12/25 09:37:59;;;;;;;64.90;39.72;;;;;;;;;;5097547;28;20051;-82
2020/12/25 09:40:25;;;;;;;49.58;28.83;;;;;;;;;;5097530;28;20051;-79
2020/12/25 09:42:51;;;;;;;58.40;33.47;;;;;;;;;;5097642;28;20020;-79
2020/12/25 09:45:17;;;;;;;120.75;62.00;;;;;;;;;;5097453;28;20047;-79
2020/12/25 09:47:43;;;;;;;114.97;63.80;;;;;;;;;;5097378;28;20020;-79
2020/12/25 09:50:09;;;;;;;96.75;57.17;;;;;;;;;;5097689;28;20051;-79
2020/12/25 09:52:36;;;;;;;98.32;55.17;;;;;;;;;;5097379;28;20310;-79
2020/12/25 09:55:03;;;;;;;152.25;78.38;;;;;;;;;;5079564;28;20294;-78
2020/12/25 09:57:29;;;;;;;211.02;99.97;;;;;;;;;;5097107;28;20028;-78
2020/12/25 09:59:55;;;;;;;193.75;92.05;;;;;;;;;;5097145;28;20020;-79
2020/12/25 10:02:21;;;;;;;176.98;85.45;;;;;;;;;;5096808;28;20062;-78
2020/12/25 10:04:47;;;;;;;148.65;70.95;;;;;;;;;;5097476;28;20028;-78
2020/12/25 10:07:13;;;;;;;144.48;78.15;;;;;;;;;;5097233;28;20028;-79
2020/12/25 10:09:40;;;;;;;147.43;79.63;;;;;;;;;;5096991;28;20409;-78
2020/12/25 10:12:06;;;;;;;160.32;82.65;;;;;;;;;;5079356;28;20103;-79
2020/12/25 10:14:32;;;;;;;133.98;77.72;;;;;;;;;;5097331;28;20020;-79
2020/12/25 10:16:58;;;;;;;128.38;72.32;;;;;;;;;;5078486;28;20042;-79
2020/12/25 10:19:24;;;;;;;115.63;64.45;;;;;;;;;;5078705;28;20039;-79
2020/12/25 10:21:51;;;;;;;83.70;50.90;;;;;;;;;;5097175;28;20021;-79
2020/12/25 10:24:17;;;;;;;70.95;42.75;;;;;;;;;;5096787;28;20054;-79
2020/12/25 10:26:47;;;;;;;54.50;31.95;;;;;;;;;;5096863;28;20440;-79
2020/12/25 10:29:13;;;;;;;43.85;26.65;;;;;;;;;;5097247;28;20107;-79
2020/12/25 10:31:39;;;;;;;37.90;23.55;;;;;;;;;;5096879;28;20031;-79
2020/12/25 10:34:05;;;;;;;36.80;23.52;;;;;;;;;;5096923;28;20030;-79
2020/12/25 10:36:31;;;;;;;44.03;24.15;;;;;;;;;;5096621;28;20027;-79
2020/12/25 10:38:58;;;;;;;25.80;17.10;;;;;;;;;;5078264;28;20036;-79
2020/12/25 10:41:30;;;;;;;28.05;16.98;;;;;;;;;;5096841;28;20348;-78
2020/12/25 10:43:57;;;;;;;22.52;15.60;;;;;;;;;;5096785;28;20031;-79
2020/12/25 10:46:23;;;;;;;24.05;16.40;;;;;;;;;;5096712;28;20031;-78
2020/12/25 10:48:49;;;;;;;23.20;15.20;;;;;;;;;;5097063;28;20070;-78
2020/12/25 10:51:15;;;;;;;33.03;17.58;;;;;;;;;;5096928;28;20025;-78
2020/12/25 10:53:41;;;;;;;24.58;13.82;;;;;;;;;;5078594;28;20123;-78
2020/12/25 10:56:07;;;;;;;15.95;9.98;;;;;;;;;;5096646;28;20413;-78
2020/12/25 10:58:34;;;;;;;19.30;11.90;;;;;;;;;;5096960;28;20099;-79
2020/12/25 11:01:00;;;;;;;16.05;10.90;;;;;;;;;;5078880;28;20313;-79
2020/12/25 11:03:26;;;;;;;19.00;13.05;;;;;;;;;;5078211;28;20093;-79
2020/12/25 11:05:52;;;;;;;26.27;14.98;;;;;;;;;;5096510;28;20051;-79
2020/12/25 11:08:18;;;;;;;23.50;15.48;;;;;;;;;;5080444;28;20020;-79
2020/12/25 11:10:45;;;;;;;31.02;17.40;;;;;;;;;;5082077;28;20044;-81
2020/12/25 11:13:11;;;;;;;28.65;18.73;;;;;;;;;;5100496;28;20325;-79
2020/12/25 11:15:40;;;;;;;31.70;21.35;;;;;;;;;;5100175;28;20024;-79
2020/12/25 11:18:07;;;;;;;32.65;20.98;;;;;;;;;;5082184;28;20040;-80
2020/12/25 11:20:33;;;;;;;21.25;14.02;;;;;;;;;;5100053;28;20024;-80
2020/12/25 11:23:00;;;;;;;17.45;10.43;;;;;;;;;;5100081;28;20023;-80
2020/12/25 11:25:26;;;;;;;13.32;9.40;;;;;;;;;;5081871;28;20036;-79
2020/12/25 11:27:52;;;;;;;12.75;9.90;;;;;;;;;;5081680;28;20447;-80
2020/12/25 11:30:18;;;;;;;11.45;7.20;;;;;;;;;;5100077;28;20409;-80
2020/12/25 11:32:44;;;;;;;12.52;6.45;;;;;;;;;;5099925;28;20024;-80
2020/12/25 11:35:10;;;;;;;8.13;5.65;;;;;;;;;;5100153;28;20032;-78
2020/12/25 11:37:36;;;;;;;7.53;4.47;;;;;;;;;;5099994;28;20043;-78
2020/12/25 11:40:02;;;;;;;8.52;5.53;;;;;;;;;;5099719;28;20029;-78
2020/12/25 11:42:28;;;;;;;11.05;6.88;;;;;;;;;;5099943;28;20070;-79
2020/12/25 11:44:54;;;;;;;9.80;6.57;;;;;;;;;;5099666;28;20069;-78
2020/12/25 11:47:20;;;;;;;7.57;5.20;;;;;;;;;;5099409;28;20028;-78
2020/12/25 11:49:46;;;;;;;7.43;4.05;;;;;;;;;;5099582;28;20053;-78
2020/12/25 11:52:12;;;;;;;7.32;4.05;;;;;;;;;;5099678;28;20405;-79
2020/12/25 11:54:38;;;;;;;7.75;4.63;;;;;;;;;;5081238;28;20031;-79
2020/12/25 11:57:04;;;;;;;6.28;5.00;;;;;;;;;;5099632;28;20021;-79
2020/12/25 11:59:31;;;;;;;10.43;6.53;;;;;;;;;;5099836;28;20051;-78
2020/12/25 12:01:57;;;;;;;11.85;8.70;;;;;;;;;;5099350;28;20086;-78
2020/12/25 12:04:23;;;;;;;12.48;8.25;;;;;;;;;;5081356;28;20020;-79
2020/12/25 12:06:49;;;;;;;13.77;8.60;;;;;;;;;;5099280;28;20028;-78
2020/12/25 12:09:15;;;;;;;17.95;9.50;;;;;;;;;;5099303;28;20032;-78
2020/12/25 12:11:42;;;;;;;23.05;12.90;;;;;;;;;;5099349;28;20095;-78
2020/12/25 12:14:08;;;;;;;20.27;13.15;;;;;;;;;;5098816;28;20020;-79
2020/12/25 12:16:34;;;;;;;24.55;13.45;;;;;;;;;;5099205;28;20434;-78
2020/12/25 12:19:00;;;;;;;22.67;13.80;;;;;;;;;;5080694;28;20024;-79
2020/12/25 12:21:26;;;;;;;19.27;11.27;;;;;;;;;;5099280;28;20067;-79
2020/12/25 12:23:53;;;;;;;17.17;11.02;;;;;;;;;;5092920;28;20032;-79
2020/12/25 12:26:19;;;;;;;22.85;13.15;;;;;;;;;;5098916;28;20020;-79
2020/12/25 12:28:45;;;;;;;23.58;14.90;;;;;;;;;;5099010;28;20024;-79
2020/12/25 12:31:11;;;;;;;25.33;15.52;;;;;;;;;;5098524;28;20024;-79
2020/12/25 12:33:38;;;;;;;23.52;14.10;;;;;;;;;;5098807;28;20031;-79
2020/12/25 12:36:04;;;;;;;24.23;13.60;;;;;;;;;;5098870;28;20024;-79
2020/12/25 12:38:31;;;;;;;25.02;14.77;;;;;;;;;;5098573;28;20325;-79
2020/12/25 12:40:57;;;;;;;26.38;16.30;;;;;;;;;;5098740;28;20020;-79
2020/12/25 12:43:23;;;;;;;24.70;15.82;;;;;;;;;;5098625;28;20020;-78
2020/12/25 12:45:49;;;;;;;30.05;18.30;;;;;;;;;;5098392;28;20024;-78
2020/12/25 12:48:15;;;;;;;25.83;17.23;;;;;;;;;;5098723;28;20046;-79
2020/12/25 12:50:41;;;;;;;26.35;16.73;;;;;;;;;;5098526;28;20032;-79
2020/12/25 12:53:07;;;;;;;26.52;15.30;;;;;;;;;;5098455;28;20321;-78
2020/12/25 12:55:33;;;;;;;23.20;15.35;;;;;;;;;;5098493;28;20082;-78
2020/12/25 12:57:59;;;;;;;22.35;15.05;;;;;;;;;;5098348;28;20160;-78
2020/12/25 13:00:25;;;;;;;25.95;14.40;;;;;;;;;;5079710;28;20028;-79
2020/12/25 13:02:51;;;;;;;26.23;16.90;;;;;;;;;;5098314;28;20099;-79
2020/12/25 13:05:17;;;;;;;30.42;16.55;;;;;;;;;;5098196;28;20024;-79
2020/12/25 13:07:44;;;;;;;31.38;17.15;;;;;;;;;;5079900;28;20044;-79
2020/12/25 13:10:10;;;;;;;32.85;17.33;;;;;;;;;;5097905;28;20409;-78
2020/12/25 13:12:36;;;;;;;31.08;17.80;;;;;;;;;;5098064;28;20039;-79
2020/12/25 13:15:02;;;;;;;23.75;14.13;;;;;;;;;;5079578;28;20039;-78
2020/12/25 13:17:28;;;;;;;24.25;14.73;;;;;;;;;;5079405;28;20059;-78
2020/12/25 13:19:55;;;;;;;28.45;16.17;;;;;;;;;;5097829;28;20044;-79
2020/12/25 13:22:21;;;;;;;27.08;16.77;;;;;;;;;;5079500;28;20085;-79
2020/12/25 13:24:47;;;;;;;29.38;19.48;;;;;;;;;;5097887;28;20413;-79
2020/12/25 13:27:13;;;;;;;30.13;19.67;;;;;;;;;;5097999;28;20028;-79
2020/12/25 13:29:39;;;;;;;25.17;16.00;;;;;;;;;;5097684;28;20119;-78
2020/12/25 13:32:06;;;;;;;25.85;17.40;;;;;;;;;;5078921;28;20330;-78
2020/12/25 13:34:32;;;;;;;24.20;14.65;;;;;;;;;;5097568;28;20048;-79
2020/12/25 13:36:58;;;;;;;31.92;19.55;;;;;;;;;;5097958;28;20012;-79
2020/12/25 13:39:24;;;;;;;33.58;22.55;;;;;;;;;;5097660;28;20055;-78
2020/12/25 13:41:53;;;;;;;30.48;20.73;;;;;;;;;;5097323;28;20036;-79
2020/12/25 13:44:19;;;;;;;65.97;43.30;;;;;;;;;;5097532;28;20024;-79
2020/12/25 13:46:48;;;;;;;92.35;48.05;;;;;;;;;;5097476;28;20162;-79
2020/12/25 13:49:15;;;;;;;113.38;44.95;;;;;;;;;;5097316;28;20035;-79
2020/12/25 13:51:41;;;;;;;111.22;40.28;;;;;;;;;;5097684;28;20028;-79
2020/12/25 13:54:07;;;;;;;142.95;40.67;;;;;;;;;;5097317;28;20073;-79
2020/12/25 13:56:35;;;;;;;66.57;28.75;;;;;;;;;;5097493;28;20023;-78
2020/12/25 13:59:01;;;;;;;78.68;28.85;;;;;;;;;;5079090;28;20078;-78
2020/12/25 14:01:27;;;;;;;48.25;25.15;;;;;;;;;;5079379;28;20020;-78
2020/12/25 14:03:53;;;;;;;57.88;24.08;;;;;;;;;;5097243;28;20458;-78
2020/12/25 14:06:28;;;;;;;78.85;28.40;;;;;;;;;;5097499;28;20313;-79
2020/12/25 14:08:54;;;;;;;118.38;42.38;;;;;;;;;;5097268;28;20367;-78
2020/12/25 14:11:20;;;;;;;79.45;35.20;;;;;;;;;;5097276;28;20036;-78
2020/12/25 14:13:46;;;;;;;95.15;35.75;;;;;;;;;;5097597;28;20115;-79
2020/12/25 14:16:19;;;;;;;53.72;25.55;;;;;;;;;;5096662;28;20020;-79
2020/12/25 14:18:48;;;;;;;76.68;27.65;;;;;;;;;;5076963;28;20067;-79
2020/12/25 14:21:14;;;;;;;117.60;37.70;;;;;;;;;;5077034;28;20078;-79